sensor_id;sensor_type;location;lat;lon;timestamp;pressure;altitude;pressure_sealevel;temperature;humidity
70009;BME280;59542;37.950;-122.338;2023-02-13T00:01:34;101156.69;;;17.01;52.66
70009;BME280;59542;37.950;-122.338;2023-02-13T00:04:00;101161.41;;;16.82;53.06
70009;BME280;59542;37.950;-122.338;2023-02-13T00:06:27;101157.16;;;16.22;53.94
70009;BME280;59542;37.950;-122.338;2023-02-13T00:08:53;101156.34;;;16.22;55.35
70009;BME280;59542;37.950;-122.338;2023-02-13T00:11:19;101154.66;;;16.21;54.99
70009;BME280;59542;37.950;-122.338;2023-02-13T00:13:45;101152.47;;;16.18;54.07
70009;BME280;59542;37.950;-122.338;2023-02-13T00:16:12;101156.09;;;15.88;55.14
70009;BME280;59542;37.950;-122.338;2023-02-13T00:18:38;101157.25;;;15.92;55.91
70009;BME280;59542;37.950;-122.338;2023-02-13T00:21:10;101148.06;;;15.70;59.05
70009;BME280;59542;37.950;-122.338;2023-02-13T00:23:38;101156.81;;;15.53;60.41
70009;BME280;59542;37.950;-122.338;2023-02-13T00:26:11;101154.41;;;15.64;59.26
70009;BME280;59542;37.950;-122.338;2023-02-13T00:28:38;101155.06;;;15.59;58.11
70009;BME280;59542;37.950;-122.338;2023-02-13T00:31:07;101155.25;;;15.34;58.90
70009;BME280;59542;37.950;-122.338;2023-02-13T00:33:34;101153.94;;;15.37;60.95
70009;BME280;59542;37.950;-122.338;2023-02-13T00:36:05;101155.00;;;15.36;61.74
70009;BME280;59542;37.950;-122.338;2023-02-13T00:38:33;101151.94;;;15.32;61.29
70009;BME280;59542;37.950;-122.338;2023-02-13T00:40:59;101154.16;;;15.23;61.73
70009;BME280;59542;37.950;-122.338;2023-02-13T00:43:25;101151.41;;;15.12;61.70
70009;BME280;59542;37.950;-122.338;2023-02-13T00:45:52;101153.31;;;15.23;60.98
70009;BME280;59542;37.950;-122.338;2023-02-13T00:48:20;101155.03;;;14.87;61.60
70009;BME280;59542;37.950;-122.338;2023-02-13T00:50:47;101144.75;;;14.66;63.19
70009;BME280;59542;37.950;-122.338;2023-02-13T00:53:13;101141.34;;;14.89;63.44
70009;BME280;59542;37.950;-122.338;2023-02-13T00:55:39;101145.06;;;15.06;62.87
70009;BME280;59542;37.950;-122.338;2023-02-13T00:58:06;101144.81;;;14.77;64.00
70009;BME280;59542;37.950;-122.338;2023-02-13T01:00:32;101137.25;;;14.68;64.67
70009;BME280;59542;37.950;-122.338;2023-02-13T01:02:58;101133.88;;;14.54;64.96
70009;BME280;59542;37.950;-122.338;2023-02-13T01:05:25;101135.53;;;14.55;65.11
70009;BME280;59542;37.950;-122.338;2023-02-13T01:07:53;101136.94;;;14.58;65.34
70009;BME280;59542;37.950;-122.338;2023-02-13T01:10:20;101141.81;;;14.49;66.14
70009;BME280;59542;37.950;-122.338;2023-02-13T01:12:46;101141.16;;;14.72;66.01
70009;BME280;59542;37.950;-122.338;2023-02-13T01:15:12;101140.97;;;14.48;66.65
70009;BME280;59542;37.950;-122.338;2023-02-13T01:17:38;101136.13;;;14.14;66.38
70009;BME280;59542;37.950;-122.338;2023-02-13T01:20:09;101131.53;;;14.39;66.03
70009;BME280;59542;37.950;-122.338;2023-02-13T01:22:37;101133.22;;;14.15;66.67
70009;BME280;59542;37.950;-122.338;2023-02-13T01:25:04;101130.91;;;14.37;66.20
70009;BME280;59542;37.950;-122.338;2023-02-13T01:27:31;101137.13;;;14.19;66.73
70009;BME280;59542;37.950;-122.338;2023-02-13T01:29:58;101126.22;;;14.33;66.49
70009;BME280;59542;37.950;-122.338;2023-02-13T01:32:24;101134.06;;;14.16;67.42
70009;BME280;59542;37.950;-122.338;2023-02-13T01:34:51;101131.22;;;14.29;66.95
70009;BME280;59542;37.950;-122.338;2023-02-13T01:37:17;101132.72;;;14.25;67.03
70009;BME280;59542;37.950;-122.338;2023-02-13T01:39:44;101138.59;;;14.15;67.71
70009;BME280;59542;37.950;-122.338;2023-02-13T01:42:23;101138.09;;;14.07;68.32
70009;BME280;59542;37.950;-122.338;2023-02-13T01:44:52;101139.34;;;14.04;69.08
70009;BME280;59542;37.950;-122.338;2023-02-13T01:47:25;101147.31;;;14.17;68.80
70009;BME280;59542;37.950;-122.338;2023-02-13T01:50:09;101133.94;;;13.61;71.20
70009;BME280;59542;37.950;-122.338;2023-02-13T01:52:38;101143.41;;;13.38;72.71
70009;BME280;59542;37.950;-122.338;2023-02-13T01:55:06;101147.38;;;13.29;73.18
70009;BME280;59542;37.950;-122.338;2023-02-13T01:57:34;101144.41;;;13.37;72.79
70009;BME280;59542;37.950;-122.338;2023-02-13T02:00:08;101139.72;;;13.33;72.88
70009;BME280;59542;37.950;-122.338;2023-02-13T02:02:38;101142.56;;;13.00;74.24
70009;BME280;59542;37.950;-122.338;2023-02-13T02:05:05;101145.44;;;13.05;74.26
70009;BME280;59542;37.950;-122.338;2023-02-13T02:07:34;101144.56;;;13.11;73.95
70009;BME280;59542;37.950;-122.338;2023-02-13T02:10:06;101141.56;;;12.94;74.43
70009;BME280;59542;37.950;-122.338;2023-02-13T02:15:04;101137.16;;;13.06;74.00
70009;BME280;59542;37.950;-122.338;2023-02-13T02:17:30;101138.75;;;13.14;73.18
70009;BME280;59542;37.950;-122.338;2023-02-13T02:28:09;101145.34;;;12.80;74.57
70009;BME280;59542;37.950;-122.338;2023-02-13T02:31:04;101140.56;;;12.88;74.13
70009;BME280;59542;37.950;-122.338;2023-02-13T02:39:51;101150.94;;;12.72;75.46
70009;BME280;59542;37.950;-122.338;2023-02-13T02:56:50;101136.00;;;12.24;76.83
70009;BME280;59542;37.950;-122.338;2023-02-13T02:59:20;101138.28;;;12.14;77.36
70009;BME280;59542;37.950;-122.338;2023-02-13T03:02:05;101145.72;;;11.99;77.77
70009;BME280;59542;37.950;-122.338;2023-02-13T03:04:53;101137.47;;;11.94;78.81
70009;BME280;59542;37.950;-122.338;2023-02-13T03:07:39;101136.44;;;11.88;78.99
70009;BME280;59542;37.950;-122.338;2023-02-13T03:10:24;101135.38;;;12.15;77.87
70009;BME280;59542;37.950;-122.338;2023-02-13T03:13:15;101130.47;;;11.93;78.29
70009;BME280;59542;37.950;-122.338;2023-02-13T03:15:50;101137.03;;;11.77;78.74
70009;BME280;59542;37.950;-122.338;2023-02-13T03:18:42;101137.47;;;11.80;78.92
70009;BME280;59542;37.950;-122.338;2023-02-13T03:24:39;101143.66;;;11.61;80.22
70009;BME280;59542;37.950;-122.338;2023-02-13T03:33:15;101149.44;;;11.78;81.24
70009;BME280;59542;37.950;-122.338;2023-02-13T03:39:11;101150.84;;;11.54;81.97
70009;BME280;59542;37.950;-122.338;2023-02-13T03:44:38;101158.19;;;11.12;85.63
70009;BME280;59542;37.950;-122.338;2023-02-13T03:47:07;101153.66;;;11.13;85.48
70009;BME280;59542;37.950;-122.338;2023-02-13T03:49:40;101152.16;;;10.97;86.46
70009;BME280;59542;37.950;-122.338;2023-02-13T03:52:54;101164.53;;;11.04;85.72
70009;BME280;59542;37.950;-122.338;2023-02-13T03:55:33;101163.28;;;10.94;86.16
70009;BME280;59542;37.950;-122.338;2023-02-13T03:58:31;101164.72;;;10.90;86.38
70009;BME280;59542;37.950;-122.338;2023-02-13T04:01:20;101163.06;;;10.89;86.19
70009;BME280;59542;37.950;-122.338;2023-02-13T04:03:50;101159.47;;;10.68;86.32
70009;BME280;59542;37.950;-122.338;2023-02-13T04:06:32;101167.41;;;10.96;85.63
70009;BME280;59542;37.950;-122.338;2023-02-13T04:08:59;101164.22;;;10.73;85.96
70009;BME280;59542;37.950;-122.338;2023-02-13T04:11:34;101160.31;;;10.75;86.17
70009;BME280;59542;37.950;-122.338;2023-02-13T04:17:02;101159.13;;;10.84;86.15
70009;BME280;59542;37.950;-122.338;2023-02-13T04:19:31;101166.91;;;10.73;86.81
70009;BME280;59542;37.950;-122.338;2023-02-13T04:22:00;101168.16;;;10.77;86.30
70009;BME280;59542;37.950;-122.338;2023-02-13T04:24:27;101158.00;;;10.66;87.07
70009;BME280;59542;37.950;-122.338;2023-02-13T04:26:53;101162.75;;;10.70;86.78
70009;BME280;59542;37.950;-122.338;2023-02-13T04:29:22;101164.88;;;10.81;85.90
70009;BME280;59542;37.950;-122.338;2023-02-13T04:31:48;101157.66;;;10.82;85.47
70009;BME280;59542;37.950;-122.338;2023-02-13T04:34:15;101162.28;;;10.53;86.88
70009;BME280;59542;37.950;-122.338;2023-02-13T04:36:41;101165.03;;;10.32;88.42
70009;BME280;59542;37.950;-122.338;2023-02-13T04:39:08;101154.88;;;10.55;87.50
70009;BME280;59542;37.950;-122.338;2023-02-13T04:41:34;101162.50;;;10.58;87.04
70009;BME280;59542;37.950;-122.338;2023-02-13T04:44:00;101160.81;;;10.51;87.79
70009;BME280;59542;37.950;-122.338;2023-02-13T04:46:26;101161.09;;;10.28;88.75
70009;BME280;59542;37.950;-122.338;2023-02-13T04:48:53;101164.09;;;10.18;89.31
70009;BME280;59542;37.950;-122.338;2023-02-13T04:51:20;101163.84;;;10.41;88.23
70009;BME280;59542;37.950;-122.338;2023-02-13T04:53:46;101159.53;;;10.40;88.08
70009;BME280;59542;37.950;-122.338;2023-02-13T04:56:12;101153.81;;;10.50;87.34
70009;BME280;59542;37.950;-122.338;2023-02-13T04:58:38;101155.84;;;10.48;87.13
70009;BME280;59542;37.950;-122.338;2023-02-13T05:01:14;101155.84;;;10.48;87.03
70009;BME280;59542;37.950;-122.338;2023-02-13T05:03:41;101165.13;;;10.45;87.04
70009;BME280;59542;37.950;-122.338;2023-02-13T05:06:07;101168.97;;;10.36;86.87
70009;BME280;59542;37.950;-122.338;2023-02-13T05:08:34;101160.13;;;10.36;86.99
70009;BME280;59542;37.950;-122.338;2023-02-13T05:11:00;101166.53;;;10.41;86.83
70009;BME280;59542;37.950;-122.338;2023-02-13T05:13:26;101163.84;;;10.41;87.29
70009;BME280;59542;37.950;-122.338;2023-02-13T05:15:53;101163.50;;;10.51;86.46
70009;BME280;59542;37.950;-122.338;2023-02-13T05:18:19;101153.78;;;10.43;86.68
70009;BME280;59542;37.950;-122.338;2023-02-13T05:20:45;101165.84;;;10.32;87.34
70009;BME280;59542;37.950;-122.338;2023-02-13T05:23:31;101162.00;;;10.14;87.49
70009;BME280;59542;37.950;-122.338;2023-02-13T05:25:58;101161.56;;;10.38;86.74
70009;BME280;59542;37.950;-122.338;2023-02-13T05:28:24;101161.78;;;10.43;85.94
70009;BME280;59542;37.950;-122.338;2023-02-13T05:31:08;101163.28;;;10.52;85.49
70009;BME280;59542;37.950;-122.338;2023-02-13T05:33:35;101157.06;;;10.39;85.30
70009;BME280;59542;37.950;-122.338;2023-02-13T05:36:01;101160.19;;;9.93;85.53
70009;BME280;59542;37.950;-122.338;2023-02-13T05:38:27;101153.78;;;9.66;84.67
70009;BME280;59542;37.950;-122.338;2023-02-13T05:40:53;101133.44;;;9.01;85.90
70009;BME280;59542;37.950;-122.338;2023-02-13T05:43:20;101136.94;;;8.86;86.17
70009;BME280;59542;37.950;-122.338;2023-02-13T05:45:46;101134.56;;;8.77;85.46
70009;BME280;59542;37.950;-122.338;2023-02-13T05:48:12;101130.84;;;8.56;86.06
70009;BME280;59542;37.950;-122.338;2023-02-13T05:50:39;101128.34;;;8.69;85.99
70009;BME280;59542;37.950;-122.338;2023-02-13T05:53:05;101134.09;;;8.88;84.95
70009;BME280;59542;37.950;-122.338;2023-02-13T05:55:31;101144.41;;;8.91;83.97
70009;BME280;59542;37.950;-122.338;2023-02-13T05:57:57;101143.66;;;8.82;84.46
70009;BME280;59542;37.950;-122.338;2023-02-13T06:00:24;101151.59;;;8.76;84.86
70009;BME280;59542;37.950;-122.338;2023-02-13T06:02:50;101156.84;;;8.84;84.44
70009;BME280;59542;37.950;-122.338;2023-02-13T06:05:16;101156.66;;;9.21;82.32
70009;BME280;59542;37.950;-122.338;2023-02-13T06:07:43;101158.94;;;9.24;81.04
70009;BME280;59542;37.950;-122.338;2023-02-13T06:10:09;101150.88;;;9.18;81.15
70009;BME280;59542;37.950;-122.338;2023-02-13T06:12:35;101146.97;;;9.20;80.97
70009;BME280;59542;37.950;-122.338;2023-02-13T06:15:03;101159.31;;;9.00;80.53
70009;BME280;59542;37.950;-122.338;2023-02-13T06:17:29;101152.75;;;8.66;80.42
70009;BME280;59542;37.950;-122.338;2023-02-13T06:19:55;101149.25;;;8.36;79.05
70009;BME280;59542;37.950;-122.338;2023-02-13T06:22:21;101148.09;;;8.31;79.73
70009;BME280;59542;37.950;-122.338;2023-02-13T06:24:47;101139.00;;;8.25;81.40
70009;BME280;59542;37.950;-122.338;2023-02-13T06:27:14;101136.13;;;8.27;82.06
70009;BME280;59542;37.950;-122.338;2023-02-13T06:29:40;101131.88;;;8.40;81.67
70009;BME280;59542;37.950;-122.338;2023-02-13T06:32:06;101125.25;;;8.36;82.88
70009;BME280;59542;37.950;-122.338;2023-02-13T06:34:32;101130.72;;;8.20;84.55
70009;BME280;59542;37.950;-122.338;2023-02-13T06:36:59;101126.88;;;8.23;85.30
70009;BME280;59542;37.950;-122.338;2023-02-13T06:39:25;101123.09;;;8.32;85.04
70009;BME280;59542;37.950;-122.338;2023-02-13T06:41:51;101117.97;;;8.45;85.17
70009;BME280;59542;37.950;-122.338;2023-02-13T06:44:17;101112.34;;;8.25;86.11
70009;BME280;59542;37.950;-122.338;2023-02-13T06:46:44;101112.72;;;8.37;85.98
70009;BME280;59542;37.950;-122.338;2023-02-13T06:49:10;101115.09;;;8.17;85.81
70009;BME280;59542;37.950;-122.338;2023-02-13T06:51:36;101115.38;;;8.37;84.63
70009;BME280;59542;37.950;-122.338;2023-02-13T06:54:02;101117.19;;;8.21;82.81
70009;BME280;59542;37.950;-122.338;2023-02-13T06:56:29;101116.22;;;8.37;82.14
70009;BME280;59542;37.950;-122.338;2023-02-13T06:58:55;101113.16;;;7.96;81.04
70009;BME280;59542;37.950;-122.338;2023-02-13T07:01:21;101112.50;;;7.94;81.07
70009;BME280;59542;37.950;-122.338;2023-02-13T07:03:47;101111.59;;;8.02;80.86
70009;BME280;59542;37.950;-122.338;2023-02-13T07:06:17;101114.91;;;7.89;81.27
70009;BME280;59542;37.950;-122.338;2023-02-13T07:08:44;101116.94;;;7.64;83.06
70009;BME280;59542;37.950;-122.338;2023-02-13T07:11:18;101110.94;;;7.85;82.46
70009;BME280;59542;37.950;-122.338;2023-02-13T07:13:44;101110.19;;;7.91;82.34
70009;BME280;59542;37.950;-122.338;2023-02-13T07:16:10;101112.22;;;7.89;82.71
70009;BME280;59542;37.950;-122.338;2023-02-13T07:18:37;101107.34;;;7.78;83.74
70009;BME280;59542;37.950;-122.338;2023-02-13T07:21:03;101117.63;;;7.81;83.90
70009;BME280;59542;37.950;-122.338;2023-02-13T07:23:29;101116.34;;;7.91;83.51
70009;BME280;59542;37.950;-122.338;2023-02-13T07:25:58;101113.41;;;7.86;83.23
70009;BME280;59542;37.950;-122.338;2023-02-13T07:28:25;101112.09;;;7.82;83.31
70009;BME280;59542;37.950;-122.338;2023-02-13T07:30:52;101111.47;;;7.80;83.44
70009;BME280;59542;37.950;-122.338;2023-02-13T07:33:18;101112.22;;;7.89;82.90
70009;BME280;59542;37.950;-122.338;2023-02-13T07:35:49;101108.66;;;7.97;82.44
70009;BME280;59542;37.950;-122.338;2023-02-13T07:38:17;101104.53;;;7.94;82.59
70009;BME280;59542;37.950;-122.338;2023-02-13T07:40:44;101098.91;;;7.89;82.08
70009;BME280;59542;37.950;-122.338;2023-02-13T07:43:11;101097.19;;;7.58;83.04
70009;BME280;59542;37.950;-122.338;2023-02-13T07:45:38;101098.63;;;7.84;81.71
70009;BME280;59542;37.950;-122.338;2023-02-13T07:48:04;101100.47;;;7.60;81.55
70009;BME280;59542;37.950;-122.338;2023-02-13T07:50:31;101100.59;;;7.67;80.98
70009;BME280;59542;37.950;-122.338;2023-02-13T07:52:59;101102.13;;;7.24;82.69
70009;BME280;59542;37.950;-122.338;2023-02-13T07:55:27;101095.59;;;7.26;82.65
70009;BME280;59542;37.950;-122.338;2023-02-13T07:57:54;101081.59;;;7.09;83.23
70009;BME280;59542;37.950;-122.338;2023-02-13T08:00:21;101084.78;;;7.05;83.96
70009;BME280;59542;37.950;-122.338;2023-02-13T08:02:48;101069.56;;;6.91;83.97
70009;BME280;59542;37.950;-122.338;2023-02-13T08:05:14;101067.84;;;7.21;83.12
70009;BME280;59542;37.950;-122.338;2023-02-13T08:07:40;101075.13;;;7.50;81.09
70009;BME280;59542;37.950;-122.338;2023-02-13T08:10:10;101070.34;;;7.45;81.23
70009;BME280;59542;37.950;-122.338;2023-02-13T08:12:55;101065.16;;;7.44;81.42
70009;BME280;59542;37.950;-122.338;2023-02-13T08:15:21;101067.13;;;7.27;81.38
70009;BME280;59542;37.950;-122.338;2023-02-13T08:17:48;101055.13;;;7.31;81.46
70009;BME280;59542;37.950;-122.338;2023-02-13T08:20:14;101043.09;;;6.97;82.42
70009;BME280;59542;37.950;-122.338;2023-02-13T08:22:41;101049.81;;;6.85;83.39
70009;BME280;59542;37.950;-122.338;2023-02-13T08:25:07;101049.56;;;6.72;84.80
70009;BME280;59542;37.950;-122.338;2023-02-13T08:27:33;101051.56;;;7.01;83.02
70009;BME280;59542;37.950;-122.338;2023-02-13T08:30:00;101047.81;;;7.10;82.21
70009;BME280;59542;37.950;-122.338;2023-02-13T08:32:29;101049.63;;;7.09;82.96
70009;BME280;59542;37.950;-122.338;2023-02-13T08:34:55;101043.38;;;7.02;82.97
70009;BME280;59542;37.950;-122.338;2023-02-13T08:37:21;101049.34;;;7.04;83.00
70009;BME280;59542;37.950;-122.338;2023-02-13T08:39:48;101058.44;;;7.10;83.10
70009;BME280;59542;37.950;-122.338;2023-02-13T08:42:14;101060.97;;;7.11;82.61
70009;BME280;59542;37.950;-122.338;2023-02-13T08:44:40;101067.00;;;7.05;82.52
70009;BME280;59542;37.950;-122.338;2023-02-13T08:47:08;101059.06;;;6.66;84.62
70009;BME280;59542;37.950;-122.338;2023-02-13T08:49:34;101058.31;;;6.57;85.02
70009;BME280;59542;37.950;-122.338;2023-02-13T08:52:01;101064.13;;;6.84;84.74
70009;BME280;59542;37.950;-122.338;2023-02-13T08:54:29;101058.09;;;6.67;86.41
70009;BME280;59542;37.950;-122.338;2023-02-13T08:56:56;101057.25;;;6.67;87.31
70009;BME280;59542;37.950;-122.338;2023-02-13T08:59:22;101062.13;;;6.24;89.02
70009;BME280;59542;37.950;-122.338;2023-02-13T09:01:49;101066.03;;;6.36;90.04
70009;BME280;59542;37.950;-122.338;2023-02-13T09:04:15;101059.72;;;6.37;90.26
70009;BME280;59542;37.950;-122.338;2023-02-13T09:06:43;101065.53;;;6.41;91.78
70009;BME280;59542;37.950;-122.338;2023-02-13T09:09:09;101070.53;;;6.35;92.10
70009;BME280;59542;37.950;-122.338;2023-02-13T09:11:36;101070.25;;;6.61;92.36
70009;BME280;59542;37.950;-122.338;2023-02-13T09:14:03;101062.13;;;6.86;94.18
70009;BME280;59542;37.950;-122.338;2023-02-13T09:16:29;101078.59;;;7.12;94.86
70009;BME280;59542;37.950;-122.338;2023-02-13T09:18:56;101072.41;;;7.35;94.65
70009;BME280;59542;37.950;-122.338;2023-02-13T09:21:22;101070.91;;;7.55;95.16
70009;BME280;59542;37.950;-122.338;2023-02-13T09:23:48;101068.06;;;7.72;95.66
70009;BME280;59542;37.950;-122.338;2023-02-13T09:26:17;101066.34;;;7.79;95.71
70009;BME280;59542;37.950;-122.338;2023-02-13T09:28:44;101068.47;;;7.98;95.59
70009;BME280;59542;37.950;-122.338;2023-02-13T09:31:12;101063.69;;;7.79;95.74
70009;BME280;59542;37.950;-122.338;2023-02-13T09:33:43;101059.25;;;7.56;95.50
70009;BME280;59542;37.950;-122.338;2023-02-13T09:36:12;101060.59;;;7.14;95.48
70009;BME280;59542;37.950;-122.338;2023-02-13T09:38:40;101070.00;;;7.25;95.19
70009;BME280;59542;37.950;-122.338;2023-02-13T09:41:39;101059.06;;;6.97;94.92
70009;BME280;59542;37.950;-122.338;2023-02-13T09:47:15;101048.00;;;7.08;92.22
70009;BME280;59542;37.950;-122.338;2023-02-13T09:49:53;101047.16;;;6.85;93.80
70009;BME280;59542;37.950;-122.338;2023-02-13T09:52:20;101044.91;;;6.97;93.52
70009;BME280;59542;37.950;-122.338;2023-02-13T09:54:46;101040.59;;;6.73;94.33
70009;BME280;59542;37.950;-122.338;2023-02-13T09:57:33;101033.13;;;6.68;93.59
70009;BME280;59542;37.950;-122.338;2023-02-13T10:05:41;101018.34;;;6.66;90.07
70009;BME280;59542;37.950;-122.338;2023-02-13T10:13:22;101016.88;;;6.86;87.00
70009;BME280;59542;37.950;-122.338;2023-02-13T10:16:16;101015.84;;;6.95;86.28
70009;BME280;59542;37.950;-122.338;2023-02-13T10:19:10;101012.22;;;6.88;86.19
70009;BME280;59542;37.950;-122.338;2023-02-13T10:21:41;101012.91;;;6.82;86.66
70009;BME280;59542;37.950;-122.338;2023-02-13T10:24:30;101017.06;;;7.07;85.80
70009;BME280;59542;37.950;-122.338;2023-02-13T10:27:02;101003.47;;;7.02;85.45
70009;BME280;59542;37.950;-122.338;2023-02-13T10:30:02;101009.09;;;6.84;85.85
70009;BME280;59542;37.950;-122.338;2023-02-13T10:32:48;100995.97;;;7.06;85.37
70009;BME280;59542;37.950;-122.338;2023-02-13T10:35:29;100993.84;;;6.78;86.11
70009;BME280;59542;37.950;-122.338;2023-02-13T10:37:58;100993.66;;;6.80;86.50
70009;BME280;59542;37.950;-122.338;2023-02-13T10:40:31;100997.31;;;6.79;86.07
70009;BME280;59542;37.950;-122.338;2023-02-13T10:43:07;100989.97;;;6.81;86.41
70009;BME280;59542;37.950;-122.338;2023-02-13T10:56:31;101007.25;;;6.85;86.60
70009;BME280;59542;37.950;-122.338;2023-02-13T11:01:44;101009.72;;;6.86;86.77
70009;BME280;59542;37.950;-122.338;2023-02-13T11:04:13;101014.22;;;6.86;86.71
70009;BME280;59542;37.950;-122.338;2023-02-13T11:06:49;101019.63;;;6.78;87.41
70009;BME280;59542;37.950;-122.338;2023-02-13T11:09:17;101013.00;;;6.43;89.53
70009;BME280;59542;37.950;-122.338;2023-02-13T11:11:43;101028.00;;;6.67;88.95
70009;BME280;59542;37.950;-122.338;2023-02-13T11:14:13;101029.59;;;6.76;87.99
70009;BME280;59542;37.950;-122.338;2023-02-13T11:19:21;101025.03;;;7.07;87.21
70009;BME280;59542;37.950;-122.338;2023-02-13T11:21:53;101026.53;;;6.87;88.29
70009;BME280;59542;37.950;-122.338;2023-02-13T11:24:22;101037.53;;;7.07;88.04
70009;BME280;59542;37.950;-122.338;2023-02-13T11:27:07;101021.50;;;6.92;88.53
70009;BME280;59542;37.950;-122.338;2023-02-13T11:29:35;101009.91;;;6.85;89.35
70009;BME280;59542;37.950;-122.338;2023-02-13T11:34:39;101006.66;;;6.75;90.75
70009;BME280;59542;37.950;-122.338;2023-02-13T11:39:43;101009.47;;;7.19;90.02
70009;BME280;59542;37.950;-122.338;2023-02-13T11:42:41;101012.06;;;7.27;88.62
70009;BME280;59542;37.950;-122.338;2023-02-13T11:45:21;101008.84;;;7.32;88.30
70009;BME280;59542;37.950;-122.338;2023-02-13T11:47:48;100999.59;;;7.43;88.25
70009;BME280;59542;37.950;-122.338;2023-02-13T11:50:33;100995.59;;;7.09;90.87
70009;BME280;59542;37.950;-122.338;2023-02-13T11:53:14;101000.44;;;7.43;90.16
70009;BME280;59542;37.950;-122.338;2023-02-13T11:55:45;100992.34;;;7.36;90.77
70009;BME280;59542;37.950;-122.338;2023-02-13T11:58:27;100984.09;;;7.46;90.31
70009;BME280;59542;37.950;-122.338;2023-02-13T12:04:13;100974.38;;;7.01;91.38
70009;BME280;59542;37.950;-122.338;2023-02-13T12:09:24;100974.63;;;7.44;90.22
70009;BME280;59542;37.950;-122.338;2023-02-13T12:11:53;100969.13;;;7.60;91.04
70009;BME280;59542;37.950;-122.338;2023-02-13T12:14:24;100976.41;;;7.13;89.67
70009;BME280;59542;37.950;-122.338;2023-02-13T12:17:07;100981.88;;;7.35;90.06
70009;BME280;59542;37.950;-122.338;2023-02-13T12:19:46;100971.56;;;7.17;90.84
70009;BME280;59542;37.950;-122.338;2023-02-13T12:36:35;101013.75;;;7.43;89.47
70009;BME280;59542;37.950;-122.338;2023-02-13T12:47:45;100997.78;;;7.58;90.31
70009;BME280;59542;37.950;-122.338;2023-02-13T12:56:07;101002.25;;;7.28;91.56
70009;BME280;59542;37.950;-122.338;2023-02-13T13:01:45;101007.00;;;7.18;93.57
70009;BME280;59542;37.950;-122.338;2023-02-13T13:20:57;100977.47;;;7.42;100.00
70009;BME280;59542;37.950;-122.338;2023-02-13T13:23:45;100977.75;;;7.77;100.00
70009;BME280;59542;37.950;-122.338;2023-02-13T13:28:50;100979.94;;;8.17;100.00
70009;BME280;59542;37.950;-122.338;2023-02-13T13:31:18;100986.63;;;8.28;100.00
70009;BME280;59542;37.950;-122.338;2023-02-13T13:33:46;100996.03;;;8.39;100.00
70009;BME280;59542;37.950;-122.338;2023-02-13T13:39:05;100993.00;;;8.63;100.00
70009;BME280;59542;37.950;-122.338;2023-02-13T13:49:56;100995.03;;;8.83;99.44
70009;BME280;59542;37.950;-122.338;2023-02-13T13:52:28;100996.97;;;8.89;99.00
70009;BME280;59542;37.950;-122.338;2023-02-13T13:54:57;100996.81;;;8.76;99.18
70009;BME280;59542;37.950;-122.338;2023-02-13T13:57:26;101004.75;;;8.69;100.00
70009;BME280;59542;37.950;-122.338;2023-02-13T14:05:32;101015.78;;;7.41;100.00
70009;BME280;59542;37.950;-122.338;2023-02-13T14:08:07;101021.38;;;7.46;100.00
70009;BME280;59542;37.950;-122.338;2023-02-13T14:13:37;101026.66;;;7.84;99.97
70009;BME280;59542;37.950;-122.338;2023-02-13T14:16:57;101024.53;;;7.64;100.00
70009;BME280;59542;37.950;-122.338;2023-02-13T14:21:52;101023.97;;;7.69;98.35
70009;BME280;59542;37.950;-122.338;2023-02-13T14:24:21;101016.22;;;7.30;98.90
70009;BME280;59542;37.950;-122.338;2023-02-13T14:26:52;101016.22;;;7.30;98.43
70009;BME280;59542;37.950;-122.338;2023-02-13T14:29:29;101026.06;;;7.44;96.83
70009;BME280;59542;37.950;-122.338;2023-02-13T14:32:05;101038.69;;;7.04;98.04
70009;BME280;59542;37.950;-122.338;2023-02-13T14:34:34;101052.59;;;6.92;99.06
70009;BME280;59542;37.950;-122.338;2023-02-13T14:42:50;101053.38;;;7.23;98.48
70009;BME280;59542;37.950;-122.338;2023-02-13T14:45:30;101051.59;;;7.15;99.84
70009;BME280;59542;37.950;-122.338;2023-02-13T14:48:03;101050.53;;;7.02;99.42
70009;BME280;59542;37.950;-122.338;2023-02-13T14:50:53;101043.59;;;7.15;98.86
70009;BME280;59542;37.950;-122.338;2023-02-13T14:53:50;101031.13;;;7.16;98.68
70009;BME280;59542;37.950;-122.338;2023-02-13T14:56:19;101039.63;;;7.34;99.40
70009;BME280;59542;37.950;-122.338;2023-02-13T14:59:01;101054.50;;;7.66;98.33
70009;BME280;59542;37.950;-122.338;2023-02-13T15:01:34;101060.28;;;7.85;98.19
70009;BME280;59542;37.950;-122.338;2023-02-13T15:04:11;101066.44;;;7.85;98.14
70009;BME280;59542;37.950;-122.338;2023-02-13T15:06:43;101072.53;;;7.94;97.78
70009;BME280;59542;37.950;-122.338;2023-02-13T15:09:29;101071.41;;;8.03;96.93
70009;BME280;59542;37.950;-122.338;2023-02-13T15:11:57;101076.91;;;7.87;97.79
70009;BME280;59542;37.950;-122.338;2023-02-13T15:14:31;101084.38;;;7.91;97.72
70009;BME280;59542;37.950;-122.338;2023-02-13T15:17:13;101095.06;;;8.06;96.71
70009;BME280;59542;37.950;-122.338;2023-02-13T15:19:50;101109.66;;;8.10;96.17
70009;BME280;59542;37.950;-122.338;2023-02-13T15:22:34;101116.38;;;8.21;95.38
70009;BME280;59542;37.950;-122.338;2023-02-13T15:25:02;101116.28;;;8.14;96.34
70009;BME280;59542;37.950;-122.338;2023-02-13T15:27:36;101114.44;;;8.15;95.79
70009;BME280;59542;37.950;-122.338;2023-02-13T15:30:14;101119.50;;;8.10;96.26
70009;BME280;59542;37.950;-122.338;2023-02-13T15:32:43;101132.19;;;8.08;96.24
70009;BME280;59542;37.950;-122.338;2023-02-13T15:35:27;101135.31;;;8.26;96.16